sensor_id;sensor_type;location;lat;lon;timestamp;pressure;altitude;pressure_sealevel;temperature;humidity
15998;BME280;8103;51.340;12.326;2023-02-18T00:01:40;100550.44;;;11.38;87.89
15998;BME280;8103;51.340;12.326;2023-02-18T00:04:08;100545.72;;;11.28;87.21
15998;BME280;8103;51.340;12.326;2023-02-18T00:06:36;100556.00;;;11.15;85.86
15998;BME280;8103;51.340;12.326;2023-02-18T00:09:05;100559.41;;;11.10;85.47
15998;BME280;8103;51.340;12.326;2023-02-18T00:11:35;100557.97;;;11.03;83.25
15998;BME280;8103;51.340;12.326;2023-02-18T00:14:04;100562.69;;;10.96;81.73
15998;BME280;8103;51.340;12.326;2023-02-18T00:16:31;100575.78;;;10.92;80.63
15998;BME280;8103;51.340;12.326;2023-02-18T00:19:01;100568.78;;;10.91;80.38
15998;BME280;8103;51.340;12.326;2023-02-18T00:21:29;100569.78;;;10.85;78.42
15998;BME280;8103;51.340;12.326;2023-02-18T00:23:56;100559.78;;;10.81;77.81
15998;BME280;8103;51.340;12.326;2023-02-18T00:30:29;100562.22;;;10.65;75.34
15998;BME280;8103;51.340;12.326;2023-02-18T00:32:55;100564.81;;;10.60;75.49
15998;BME280;8103;51.340;12.326;2023-02-18T00:35:22;100556.22;;;10.58;74.81
15998;BME280;8103;51.340;12.326;2023-02-18T00:37:51;100563.66;;;10.56;74.42
15998;BME280;8103;51.340;12.326;2023-02-18T00:40:19;100555.03;;;10.54;72.90
15998;BME280;8103;51.340;12.326;2023-02-18T00:46:46;100551.81;;;10.52;73.01
15998;BME280;8103;51.340;12.326;2023-02-18T00:49:15;100553.66;;;10.52;73.08
15998;BME280;8103;51.340;12.326;2023-02-18T00:51:42;100556.00;;;10.48;72.95
15998;BME280;8103;51.340;12.326;2023-02-18T00:54:09;100557.66;;;10.49;72.72
15998;BME280;8103;51.340;12.326;2023-02-18T00:56:36;100554.41;;;10.47;72.53
15998;BME280;8103;51.340;12.326;2023-02-18T00:59:03;100563.50;;;10.46;72.54
15998;BME280;8103;51.340;12.326;2023-02-18T01:01:29;100564.63;;;10.50;72.18
15998;BME280;8103;51.340;12.326;2023-02-18T01:08:04;100560.41;;;10.54;72.26
15998;BME280;8103;51.340;12.326;2023-02-18T01:10:32;100566.59;;;10.55;72.34
15998;BME280;8103;51.340;12.326;2023-02-18T01:13:00;100566.84;;;10.53;72.39
15998;BME280;8103;51.340;12.326;2023-02-18T01:15:27;100563.66;;;10.56;72.59
15998;BME280;8103;51.340;12.326;2023-02-18T01:17:53;100552.94;;;10.56;72.32
15998;BME280;8103;51.340;12.326;2023-02-18T01:20:20;100571.47;;;10.58;71.60
15998;BME280;8103;51.340;12.326;2023-02-18T01:22:48;100569.03;;;10.56;71.45
15998;BME280;8103;51.340;12.326;2023-02-18T01:25:15;100569.03;;;10.56;70.66
15998;BME280;8103;51.340;12.326;2023-02-18T01:27:42;100562.59;;;10.57;70.70
15998;BME280;8103;51.340;12.326;2023-02-18T01:30:14;100561.22;;;10.55;70.03
15998;BME280;8103;51.340;12.326;2023-02-18T01:32:43;100564.16;;;10.53;68.52
15998;BME280;8103;51.340;12.326;2023-02-18T01:35:14;100565.22;;;10.52;69.12
15998;BME280;8103;51.340;12.326;2023-02-18T01:37:42;100555.03;;;10.54;68.95
15998;BME280;8103;51.340;12.326;2023-02-18T01:40:16;100555.63;;;10.56;67.93
15998;BME280;8103;51.340;12.326;2023-02-18T01:42:44;100552.94;;;10.56;67.86
15998;BME280;8103;51.340;12.326;2023-02-18T01:48:13;100562.53;;;10.52;67.83
15998;BME280;8103;51.340;12.326;2023-02-18T01:50:47;100588.28;;;10.53;68.45
15998;BME280;8103;51.340;12.326;2023-02-18T01:53:21;100585.03;;;10.51;68.53
15998;BME280;8103;51.340;12.326;2023-02-18T01:55:51;100581.19;;;10.47;68.79
15998;BME280;8103;51.340;12.326;2023-02-18T01:58:19;100581.44;;;10.46;68.58
15998;BME280;8103;51.340;12.326;2023-02-18T02:00:46;100587.38;;;10.48;68.55
15998;BME280;8103;51.340;12.326;2023-02-18T02:03:13;100577.47;;;10.48;68.83
15998;BME280;8103;51.340;12.326;2023-02-18T02:05:40;100566.72;;;10.48;68.88
15998;BME280;8103;51.340;12.326;2023-02-18T02:08:07;100582.03;;;10.48;68.62
15998;BME280;8103;51.340;12.326;2023-02-18T02:11:07;100589.91;;;10.54;69.18
15998;BME280;8103;51.340;12.326;2023-02-18T02:29:55;100581.63;;;10.56;70.82
15998;BME280;8103;51.340;12.326;2023-02-18T02:35:54;100571.81;;;10.61;71.34
15998;BME280;8103;51.340;12.326;2023-02-18T02:39:12;100577.66;;;10.58;71.06
15998;BME280;8103;51.340;12.326;2023-02-18T02:42:15;100582.53;;;10.61;71.10
15998;BME280;8103;51.340;12.326;2023-02-18T02:48:25;100569.63;;;10.58;70.32
15998;BME280;8103;51.340;12.326;2023-02-18T02:51:34;100569.69;;;10.63;70.80
15998;BME280;8103;51.340;12.326;2023-02-18T02:56:39;100551.50;;;10.65;69.43
15998;BME280;8103;51.340;12.326;2023-02-18T02:59:13;100552.63;;;10.69;69.66
15998;BME280;8103;51.340;12.326;2023-02-18T03:02:30;100545.88;;;10.67;69.59
15998;BME280;8103;51.340;12.326;2023-02-18T03:05:36;100550.44;;;10.66;69.51
15998;BME280;8103;51.340;12.326;2023-02-18T03:08:18;100551.97;;;10.62;70.03
15998;BME280;8103;51.340;12.326;2023-02-18T03:11:03;100553.34;;;10.65;69.64
15998;BME280;8103;51.340;12.326;2023-02-18T03:14:03;100547.69;;;10.61;69.22
15998;BME280;8103;51.340;12.326;2023-02-18T03:16:52;100553.28;;;10.60;70.30
15998;BME280;8103;51.340;12.326;2023-02-18T03:19:39;100551.75;;;10.64;69.99
15998;BME280;8103;51.340;12.326;2023-02-18T03:22:20;100557.34;;;10.62;70.30
15998;BME280;8103;51.340;12.326;2023-02-18T03:24:53;100549.53;;;10.61;69.67
15998;BME280;8103;51.340;12.326;2023-02-18T03:27:31;100548.41;;;10.57;68.79
15998;BME280;8103;51.340;12.326;2023-02-18T03:30:15;100554.81;;;10.56;68.82
15998;BME280;8103;51.340;12.326;2023-02-18T03:32:46;100553.44;;;10.53;69.24
15998;BME280;8103;51.340;12.326;2023-02-18T03:35:17;100560.16;;;10.56;69.21
15998;BME280;8103;51.340;12.326;2023-02-18T03:37:53;100556.44;;;10.57;69.50
15998;BME280;8103;51.340;12.326;2023-02-18T03:40:30;100544.31;;;10.54;69.86
15998;BME280;8103;51.340;12.326;2023-02-18T03:42:58;100539.53;;;10.56;69.93
15998;BME280;8103;51.340;12.326;2023-02-18T03:45:26;100540.59;;;10.55;70.34
15998;BME280;8103;51.340;12.326;2023-02-18T03:47:53;100541.09;;;10.52;70.23
15998;BME280;8103;51.340;12.326;2023-02-18T03:50:20;100542.38;;;10.50;70.43
15998;BME280;8103;51.340;12.326;2023-02-18T03:52:47;100537.81;;;10.50;70.55
15998;BME280;8103;51.340;12.326;2023-02-18T03:55:13;100532.81;;;10.54;70.76
15998;BME280;8103;51.340;12.326;2023-02-18T03:57:40;100531.66;;;10.50;70.70
15998;BME280;8103;51.340;12.326;2023-02-18T04:00:08;100543.13;;;10.45;71.32
15998;BME280;8103;51.340;12.326;2023-02-18T04:02:36;100547.91;;;10.43;72.02
15998;BME280;8103;51.340;12.326;2023-02-18T04:05:03;100529.38;;;10.42;72.08
15998;BME280;8103;51.340;12.326;2023-02-18T04:07:30;100529.88;;;10.39;71.95
15998;BME280;8103;51.340;12.326;2023-02-18T04:09:58;100523.69;;;10.38;72.72
15998;BME280;8103;51.340;12.326;2023-02-18T04:12:25;100521.59;;;10.40;72.49
15998;BME280;8103;51.340;12.326;2023-02-18T04:14:52;100520.44;;;10.36;73.42
15998;BME280;8103;51.340;12.326;2023-02-18T04:17:18;100520.44;;;10.36;73.60
15998;BME280;8103;51.340;12.326;2023-02-18T04:19:45;100527.91;;;10.34;74.38
15998;BME280;8103;51.340;12.326;2023-02-18T04:22:12;100532.69;;;10.32;74.89
15998;BME280;8103;51.340;12.326;2023-02-18T04:24:39;100542.69;;;10.37;75.01
15998;BME280;8103;51.340;12.326;2023-02-18T04:27:06;100540.34;;;10.40;74.72
15998;BME280;8103;51.340;12.326;2023-02-18T04:29:33;100539.75;;;10.38;75.59
15998;BME280;8103;51.340;12.326;2023-02-18T04:31:59;100543.03;;;10.40;75.99
15998;BME280;8103;51.340;12.326;2023-02-18T04:34:26;100550.00;;;10.41;76.72
15998;BME280;8103;51.340;12.326;2023-02-18T04:36:53;100531.47;;;10.40;77.40
15998;BME280;8103;51.340;12.326;2023-02-18T04:39:22;100539.28;;;10.41;77.98
15998;BME280;8103;51.340;12.326;2023-02-18T04:41:49;100530.69;;;10.39;78.21
15998;BME280;8103;51.340;12.326;2023-02-18T04:44:15;100536.06;;;10.39;78.99
15998;BME280;8103;51.340;12.326;2023-02-18T04:46:42;100529.03;;;10.38;79.18
15998;BME280;8103;51.340;12.326;2023-02-18T04:49:09;100521.25;;;10.37;80.55
15998;BME280;8103;51.340;12.326;2023-02-18T04:51:36;100514.75;;;10.33;81.17
15998;BME280;8103;51.340;12.326;2023-02-18T04:54:03;100510.22;;;10.33;81.23
15998;BME280;8103;51.340;12.326;2023-02-18T04:56:30;100498.84;;;10.26;82.33
15998;BME280;8103;51.340;12.326;2023-02-18T04:58:57;100498.25;;;10.24;82.71
15998;BME280;8103;51.340;12.326;2023-02-18T05:01:24;100484.22;;;10.17;84.69
15998;BME280;8103;51.340;12.326;2023-02-18T05:03:51;100483.88;;;10.14;84.84
15998;BME280;8103;51.340;12.326;2023-02-18T05:06:18;100484.69;;;10.14;85.65
15998;BME280;8103;51.340;12.326;2023-02-18T05:08:44;100489.56;;;10.17;86.23
15998;BME280;8103;51.340;12.326;2023-02-18T05:11:11;100481.53;;;10.17;87.49
15998;BME280;8103;51.340;12.326;2023-02-18T05:13:38;100477.22;;;10.16;87.78
15998;BME280;8103;51.340;12.326;2023-02-18T05:16:05;100470.25;;;10.15;88.49
15998;BME280;8103;51.340;12.326;2023-02-18T05:18:32;100457.91;;;10.14;89.46
15998;BME280;8103;51.340;12.326;2023-02-18T05:20:59;100452.78;;;10.13;89.77
15998;BME280;8103;51.340;12.326;2023-02-18T05:23:26;100450.41;;;10.16;89.81
15998;BME280;8103;51.340;12.326;2023-02-18T05:25:54;100454.56;;;10.24;89.80
15998;BME280;8103;51.340;12.326;2023-02-18T05:28:21;100444.09;;;10.22;90.52
15998;BME280;8103;51.340;12.326;2023-02-18T05:30:48;100443.31;;;10.22;91.19
15998;BME280;8103;51.340;12.326;2023-02-18T05:33:15;100429.66;;;10.23;91.73
15998;BME280;8103;51.340;12.326;2023-02-18T05:35:41;100406.59;;;10.22;92.14
15998;BME280;8103;51.340;12.326;2023-02-18T05:38:08;100409.19;;;10.17;93.37
15998;BME280;8103;51.340;12.326;2023-02-18T05:40:37;100408.72;;;10.20;93.45
15998;BME280;8103;51.340;12.326;2023-02-18T05:43:03;100406.59;;;10.22;93.80
15998;BME280;8103;51.340;12.326;2023-02-18T05:45:30;100408.88;;;10.30;93.23
15998;BME280;8103;51.340;12.326;2023-02-18T05:47:57;100411.31;;;10.32;93.95
15998;BME280;8103;51.340;12.326;2023-02-18T05:50:24;100403.25;;;10.32;93.53
15998;BME280;8103;51.340;12.326;2023-02-18T05:52:53;100394.16;;;10.33;93.77
15998;BME280;8103;51.340;12.326;2023-02-18T05:55:22;100402.81;;;10.40;93.66
15998;BME280;8103;51.340;12.326;2023-02-18T05:57:50;100405.84;;;10.43;93.41
15998;BME280;8103;51.340;12.326;2023-02-18T06:00:18;100403.78;;;10.50;93.26
15998;BME280;8103;51.340;12.326;2023-02-18T06:02:45;100406.56;;;10.55;92.93
15998;BME280;8103;51.340;12.326;2023-02-18T06:05:12;100409.53;;;10.59;93.18
15998;BME280;8103;51.340;12.326;2023-02-18T06:07:39;100405.00;;;10.59;92.96
15998;BME280;8103;51.340;12.326;2023-02-18T06:10:08;100405.56;;;10.61;92.90
15998;BME280;8103;51.340;12.326;2023-02-18T06:12:35;100412.56;;;10.62;93.43
15998;BME280;8103;51.340;12.326;2023-02-18T06:15:04;100410.94;;;10.61;93.69
15998;BME280;8103;51.340;12.326;2023-02-18T06:17:31;100414.66;;;10.60;93.68
15998;BME280;8103;51.340;12.326;2023-02-18T06:19:58;100403.44;;;10.63;93.49
15998;BME280;8103;51.340;12.326;2023-02-18T06:22:26;100398.06;;;10.63;94.14
15998;BME280;8103;51.340;12.326;2023-02-18T06:24:54;100406.22;;;10.68;93.65
15998;BME280;8103;51.340;12.326;2023-02-18T06:27:20;100407.50;;;10.66;93.92
15998;BME280;8103;51.340;12.326;2023-02-18T06:29:47;100393.84;;;10.67;93.77
15998;BME280;8103;51.340;12.326;2023-02-18T06:32:14;100398.41;;;10.67;93.55
15998;BME280;8103;51.340;12.326;2023-02-18T06:34:42;100388.19;;;10.64;94.34
15998;BME280;8103;51.340;12.326;2023-02-18T06:37:09;100392.72;;;10.63;94.44
15998;BME280;8103;51.340;12.326;2023-02-18T06:39:38;100396.47;;;10.62;94.46
15998;BME280;8103;51.340;12.326;2023-02-18T06:42:05;100380.38;;;10.62;94.68
15998;BME280;8103;51.340;12.326;2023-02-18T06:44:32;100386.56;;;10.63;95.33
15998;BME280;8103;51.340;12.326;2023-02-18T06:46:59;100377.75;;;10.67;94.56
15998;BME280;8103;51.340;12.326;2023-02-18T06:49:26;100373.69;;;10.65;95.30
15998;BME280;8103;51.340;12.326;2023-02-18T06:51:52;100368.03;;;10.61;95.27
15998;BME280;8103;51.340;12.326;2023-02-18T06:54:19;100361.59;;;10.62;95.35
15998;BME280;8103;51.340;12.326;2023-02-18T06:56:46;100356.75;;;10.59;95.73
15998;BME280;8103;51.340;12.326;2023-02-18T06:59:15;100345.44;;;10.57;95.80
15998;BME280;8103;51.340;12.326;2023-02-18T07:01:42;100343.47;;;10.69;95.88
15998;BME280;8103;51.340;12.326;2023-02-18T07:04:08;100343.78;;;10.73;96.52
15998;BME280;8103;51.340;12.326;2023-02-18T07:06:35;100344.09;;;10.76;96.59
15998;BME280;8103;51.340;12.326;2023-02-18T07:09:02;100334.50;;;10.81;96.14
15998;BME280;8103;51.340;12.326;2023-02-18T07:11:29;100321.63;;;10.82;95.93
15998;BME280;8103;51.340;12.326;2023-02-18T07:13:56;100317.69;;;10.90;95.74
15998;BME280;8103;51.340;12.326;2023-02-18T07:16:23;100320.06;;;10.87;96.15
15998;BME280;8103;51.340;12.326;2023-02-18T07:18:50;100321.94;;;10.86;95.90
15998;BME280;8103;51.340;12.326;2023-02-18T07:21:16;100309.88;;;10.84;96.38
15998;BME280;8103;51.340;12.326;2023-02-18T07:23:43;100312.78;;;10.82;96.30
15998;BME280;8103;51.340;12.326;2023-02-18T07:26:13;100315.25;;;10.89;96.01
15998;BME280;8103;51.340;12.326;2023-02-18T07:28:40;100308.28;;;10.88;95.60
15998;BME280;8103;51.340;12.326;2023-02-18T07:31:07;100307.78;;;10.91;96.02
15998;BME280;8103;51.340;12.326;2023-02-18T07:33:34;100301.94;;;10.94;95.77
15998;BME280;8103;51.340;12.326;2023-02-18T07:36:02;100289.50;;;10.88;96.21
15998;BME280;8103;51.340;12.326;2023-02-18T07:38:30;100294.38;;;10.91;95.84
15998;BME280;8103;51.340;12.326;2023-02-18T07:40:57;100285.25;;;10.92;96.23
15998;BME280;8103;51.340;12.326;2023-02-18T07:43:25;100287.50;;;11.00;96.32
15998;BME280;8103;51.340;12.326;2023-02-18T07:45:51;100278.41;;;11.06;95.45
15998;BME280;8103;51.340;12.326;2023-02-18T07:48:18;100276.91;;;11.15;95.57
15998;BME280;8103;51.340;12.326;2023-02-18T07:50:46;100263.56;;;11.20;94.58
15998;BME280;8103;51.340;12.326;2023-02-18T07:53:15;100265.75;;;11.28;95.12
15998;BME280;8103;51.340;12.326;2023-02-18T07:55:44;100256.69;;;11.34;93.87
15998;BME280;8103;51.340;12.326;2023-02-18T07:58:24;100263.72;;;11.40;93.36
15998;BME280;8103;51.340;12.326;2023-02-18T08:00:53;100258.88;;;11.37;93.30
15998;BME280;8103;51.340;12.326;2023-02-18T08:03:23;100258.88;;;11.37;93.49
15998;BME280;8103;51.340;12.326;2023-02-18T08:05:52;100253.00;;;11.40;93.11
15998;BME280;8103;51.340;12.326;2023-02-18T08:08:26;100256.75;;;11.39;92.27
15998;BME280;8103;51.340;12.326;2023-02-18T08:10:57;100256.00;;;11.48;91.96
15998;BME280;8103;51.340;12.326;2023-02-18T08:13:26;100251.19;;;11.50;91.91
15998;BME280;8103;51.340;12.326;2023-02-18T08:15:55;100251.50;;;11.54;91.06
15998;BME280;8103;51.340;12.326;2023-02-18T08:18:25;100250.38;;;11.50;91.02
15998;BME280;8103;51.340;12.326;2023-02-18T08:20:52;100243.72;;;11.57;90.38
15998;BME280;8103;51.340;12.326;2023-02-18T08:23:21;100231.19;;;11.63;90.39
15998;BME280;8103;51.340;12.326;2023-02-18T08:25:50;100223.16;;;11.68;89.77
15998;BME280;8103;51.340;12.326;2023-02-18T08:28:19;100218.88;;;11.72;89.80
15998;BME280;8103;51.340;12.326;2023-02-18T08:30:50;100226.47;;;11.80;88.71
15998;BME280;8103;51.340;12.326;2023-02-18T08:33:17;100222.19;;;11.84;88.64
15998;BME280;8103;51.340;12.326;2023-02-18T08:35:46;100217.38;;;11.86;88.11
15998;BME280;8103;51.340;12.326;2023-02-18T08:38:14;100222.75;;;11.91;88.49
15998;BME280;8103;51.340;12.326;2023-02-18T08:40:41;100225.19;;;11.92;87.94
15998;BME280;8103;51.340;12.326;2023-02-18T08:43:12;100223.88;;;11.95;88.37
15998;BME280;8103;51.340;12.326;2023-02-18T08:45:39;100218.78;;;11.98;88.10
15998;BME280;8103;51.340;12.326;2023-02-18T08:48:10;100212.88;;;12.01;88.45
15998;BME280;8103;51.340;12.326;2023-02-18T08:50:38;100214.22;;;11.99;90.03
15998;BME280;8103;51.340;12.326;2023-02-18T08:53:05;100207.47;;;11.91;90.94
15998;BME280;8103;51.340;12.326;2023-02-18T08:55:33;100203.44;;;11.89;91.35
15998;BME280;8103;51.340;12.326;2023-02-18T08:58:00;100206.72;;;12.01;90.76
15998;BME280;8103;51.340;12.326;2023-02-18T09:00:27;100196.03;;;12.11;90.11
15998;BME280;8103;51.340;12.326;2023-02-18T09:02:54;100190.66;;;12.16;89.32
15998;BME280;8103;51.340;12.326;2023-02-18T09:05:21;100187.47;;;12.29;88.87
15998;BME280;8103;51.340;12.326;2023-02-18T09:07:48;100165.97;;;12.29;89.64
15998;BME280;8103;51.340;12.326;2023-02-18T09:10:16;100167.56;;;12.20;90.86
15998;BME280;8103;51.340;12.326;2023-02-18T09:12:49;100169.72;;;12.18;91.29
15998;BME280;8103;51.340;12.326;2023-02-18T09:15:17;100177.50;;;12.19;90.80
15998;BME280;8103;51.340;12.326;2023-02-18T09:17:43;100176.69;;;12.19;90.56
15998;BME280;8103;51.340;12.326;2023-02-18T09:20:10;100182.09;;;12.29;90.53
15998;BME280;8103;51.340;12.326;2023-02-18T09:22:37;100177.31;;;12.36;89.89
15998;BME280;8103;51.340;12.326;2023-02-18T09:25:05;100162.25;;;12.40;88.88
15998;BME280;8103;51.340;12.326;2023-02-18T09:27:33;100164.94;;;12.45;88.71
15998;BME280;8103;51.340;12.326;2023-02-18T09:29:59;100155.03;;;12.50;87.97
15998;BME280;8103;51.340;12.326;2023-02-18T09:32:26;100144.00;;;12.52;87.90
15998;BME280;8103;51.340;12.326;2023-02-18T09:35:03;100148.59;;;12.56;87.55
15998;BME280;8103;51.340;12.326;2023-02-18T09:37:30;100135.66;;;12.58;87.50
15998;BME280;8103;51.340;12.326;2023-02-18T09:39:56;100144.03;;;12.72;86.63
15998;BME280;8103;51.340;12.326;2023-02-18T09:42:33;100132.50;;;12.81;85.85
15998;BME280;8103;51.340;12.326;2023-02-18T09:45:06;100132.22;;;12.88;85.62
15998;BME280;8103;51.340;12.326;2023-02-18T09:47:41;100124.16;;;12.93;84.87
15998;BME280;8103;51.340;12.326;2023-02-18T09:50:26;100125.25;;;13.12;84.47
15998;BME280;8103;51.340;12.326;2023-02-18T09:52:54;100101.53;;;13.24;83.67
15998;BME280;8103;51.340;12.326;2023-02-18T09:55:38;100099.13;;;13.33;82.74
15998;BME280;8103;51.340;12.326;2023-02-18T09:58:18;100087.50;;;13.47;81.96
15998;BME280;8103;51.340;12.326;2023-02-18T10:00:52;100098.22;;;13.67;81.45
15998;BME280;8103;51.340;12.326;2023-02-18T10:03:23;100094.16;;;13.70;80.67
15998;BME280;8103;51.340;12.326;2023-02-18T10:06:05;100073.91;;;13.82;79.80
15998;BME280;8103;51.340;12.326;2023-02-18T10:08:51;100084.69;;;13.82;79.60
15998;BME280;8103;51.340;12.326;2023-02-18T10:11:31;100072.69;;;14.08;78.60
15998;BME280;8103;51.340;12.326;2023-02-18T10:14:00;100119.56;;;14.17;78.45
15998;BME280;8103;51.340;12.326;2023-02-18T10:16:29;100071.13;;;14.46;77.32
15998;BME280;8103;51.340;12.326;2023-02-18T10:19:07;100070.88;;;14.81;76.23
15998;BME280;8103;51.340;12.326;2023-02-18T10:21:41;100056.81;;;15.13;74.56
15998;BME280;8103;51.340;12.326;2023-02-18T10:26:58;100053.78;;;15.48;71.72
15998;BME280;8103;51.340;12.326;2023-02-18T10:29:26;100050.38;;;15.37;72.22
15998;BME280;8103;51.340;12.326;2023-02-18T10:34:51;100050.97;;;15.06;73.33
15998;BME280;8103;51.340;12.326;2023-02-18T10:49:19;100008.69;;;14.29;75.93
15998;BME280;8103;51.340;12.326;2023-02-18T10:51:55;100031.63;;;14.26;76.14
15998;BME280;8103;51.340;12.326;2023-02-18T10:54:26;100024.09;;;14.23;76.07
15998;BME280;8103;51.340;12.326;2023-02-18T10:56:59;100034.06;;;14.23;76.24
15998;BME280;8103;51.340;12.326;2023-02-18T10:59:36;100025.72;;;14.24;75.94
15998;BME280;8103;51.340;12.326;2023-02-18T11:02:17;100028.94;;;14.21;75.88
15998;BME280;8103;51.340;12.326;2023-02-18T11:04:45;100018.97;;;14.22;75.68
15998;BME280;8103;51.340;12.326;2023-02-18T11:07:18;100024.91;;;14.19;75.83
15998;BME280;8103;51.340;12.326;2023-02-18T11:10:15;100010.66;;;14.13;76.16
15998;BME280;8103;51.340;12.326;2023-02-18T11:12:56;100008.25;;;14.07;76.07
15998;BME280;8103;51.340;12.326;2023-02-18T11:15:26;100011.22;;;14.10;76.10
15998;BME280;8103;51.340;12.326;2023-02-18T11:17:57;100031.97;;;14.10;75.65
15998;BME280;8103;51.340;12.326;2023-02-18T11:20:38;99997.47;;;14.07;75.10
15998;BME280;8103;51.340;12.326;2023-02-18T11:25:35;100011.28;;;14.00;74.60
15998;BME280;8103;51.340;12.326;2023-02-18T11:30:47;100010.75;;;13.98;74.55
15998;BME280;8103;51.340;12.326;2023-02-18T11:33:20;99998.09;;;13.94;74.53
15998;BME280;8103;51.340;12.326;2023-02-18T11:35:55;99988.41;;;13.93;74.24
15998;BME280;8103;51.340;12.326;2023-02-18T11:38:32;99982.78;;;13.89;74.21
15998;BME280;8103;51.340;12.326;2023-02-18T11:41:07;99959.84;;;13.92;74.24
15998;BME280;8103;51.340;12.326;2023-02-18T11:43:40;99982.81;;;13.79;74.34
15998;BME280;8103;51.340;12.326;2023-02-18T11:46:26;99975.31;;;13.76;74.24
15998;BME280;8103;51.340;12.326;2023-02-18T11:48:54;99958.59;;;13.74;74.19
15998;BME280;8103;51.340;12.326;2023-02-18T11:51:34;99960.25;;;13.70;74.91
15998;BME280;8103;51.340;12.326;2023-02-18T11:54:22;99950.56;;;13.69;74.77
15998;BME280;8103;51.340;12.326;2023-02-18T11:57:01;99945.19;;;13.64;74.74
15998;BME280;8103;51.340;12.326;2023-02-18T11:59:33;99950.50;;;13.74;74.49
15998;BME280;8103;51.340;12.326;2023-02-18T12:04:44;99962.31;;;13.83;72.91
15998;BME280;8103;51.340;12.326;2023-02-18T12:07:26;99964.38;;;14.01;72.06
15998;BME280;8103;51.340;12.326;2023-02-18T12:10:10;99960.47;;;14.17;70.88
15998;BME280;8103;51.340;12.326;2023-02-18T12:12:46;99968.84;;;14.54;69.45
15998;BME280;8103;51.340;12.326;2023-02-18T12:15:23;99962.72;;;14.72;68.16
15998;BME280;8103;51.340;12.326;2023-02-18T12:21:44;99940.06;;;14.73;67.91
15998;BME280;8103;51.340;12.326;2023-02-18T12:24:42;99940.47;;;14.57;67.95
15998;BME280;8103;51.340;12.326;2023-02-18T12:27:23;99945.72;;;14.43;68.12
15998;BME280;8103;51.340;12.326;2023-02-18T12:33:50;99921.00;;;14.31;67.70
15998;BME280;8103;51.340;12.326;2023-02-18T12:46:37;99912.53;;;14.09;70.59
15998;BME280;8103;51.340;12.326;2023-02-18T12:53:05;99916.72;;;13.92;72.02
15998;BME280;8103;51.340;12.326;2023-02-18T13:02:50;99921.72;;;14.08;68.36
15998;BME280;8103;51.340;12.326;2023-02-18T13:05:37;99900.06;;;14.23;68.26
15998;BME280;8103;51.340;12.326;2023-02-18T13:08:57;99936.72;;;14.24;67.61
15998;BME280;8103;51.340;12.326;2023-02-18T13:11:56;99956.97;;;14.17;67.96
15998;BME280;8103;51.340;12.326;2023-02-18T13:14:47;99932.78;;;14.07;67.95
15998;BME280;8103;51.340;12.326;2023-02-18T13:17:18;99933.63;;;14.02;68.25
15998;BME280;8103;51.340;12.326;2023-02-18T13:19:54;99921.22;;;14.01;67.39
15998;BME280;8103;51.340;12.326;2023-02-18T13:22:26;99925.31;;;13.99;67.06
15998;BME280;8103;51.340;12.326;2023-02-18T13:24:57;99921.78;;;13.98;66.99
15998;BME280;8103;51.340;12.326;2023-02-18T13:30:26;99951.16;;;14.00;66.65
15998;BME280;8103;51.340;12.326;2023-02-18T13:33:58;99955.44;;;14.06;66.67
15998;BME280;8103;51.340;12.326;2023-02-18T13:36:45;99958.41;;;14.04;66.17
15998;BME280;8103;51.340;12.326;2023-02-18T13:39:21;99953.50;;;14.11;66.36
15998;BME280;8103;51.340;12.326;2023-02-18T13:42:10;99965.13;;;14.07;65.89
15998;BME280;8103;51.340;12.326;2023-02-18T13:47:43;99953.03;;;13.99;66.31
15998;BME280;8103;51.340;12.326;2023-02-18T13:53:14;99941.81;;;13.87;66.62
15998;BME280;8103;51.340;12.326;2023-02-18T13:56:00;99951.53;;;13.83;67.49
15998;BME280;8103;51.340;12.326;2023-02-18T13:58:48;99938.88;;;13.84;67.08
15998;BME280;8103;51.340;12.326;2023-02-18T14:01:41;99952.53;;;13.97;66.26
15998;BME280;8103;51.340;12.326;2023-02-18T14:07:44;99956.94;;;13.83;66.26
15998;BME280;8103;51.340;12.326;2023-02-18T14:18:22;99972.69;;;13.61;66.84
15998;BME280;8103;51.340;12.326;2023-02-18T14:20:50;99976.47;;;13.55;67.11
15998;BME280;8103;51.340;12.326;2023-02-18T14:31:35;99965.63;;;13.75;67.17
15998;BME280;8103;51.340;12.326;2023-02-18T14:34:34;99970.38;;;13.88;67.09
15998;BME280;8103;51.340;12.326;2023-02-18T14:40:38;99977.75;;;15.78;60.69
15998;BME280;8103;51.340;12.326;2023-02-18T14:43:56;99985.25;;;15.99;59.22
15998;BME280;8103;51.340;12.326;2023-02-18T14:46:57;99977.06;;;16.23;58.74
15998;BME280;8103;51.340;12.326;2023-02-18T14:49:58;99986.13;;;16.13;58.85
15998;BME280;8103;51.340;12.326;2023-02-18T14:52:44;99976.84;;;17.16;56.45
15998;BME280;8103;51.340;12.326;2023-02-18T14:55:44;100003.34;;;17.73;54.10
15998;BME280;8103;51.340;12.326;2023-02-18T14:58:27;100002.47;;;17.99;53.33
15998;BME280;8103;51.340;12.326;2023-02-18T15:00:55;100019.78;;;17.22;54.63
15998;BME280;8103;51.340;12.326;2023-02-18T15:03:26;100024.44;;;16.39;57.72
15998;BME280;8103;51.340;12.326;2023-02-18T15:05:53;100022.72;;;15.69;60.36
15998;BME280;8103;51.340;12.326;2023-02-18T15:08:25;100005.84;;;15.06;62.66
15998;BME280;8103;51.340;12.326;2023-02-18T15:11:05;100020.69;;;14.46;65.25
15998;BME280;8103;51.340;12.326;2023-02-18T15:13:37;100004.13;;;14.24;66.36
15998;BME280;8103;51.340;12.326;2023-02-18T15:16:28;100019.81;;;14.12;67.45
15998;BME280;8103;51.340;12.326;2023-02-18T15:19:04;100016.22;;;13.83;68.50
15998;BME280;8103;51.340;12.326;2023-02-18T15:21:38;100021.13;;;13.76;68.78
15998;BME280;8103;51.340;12.326;2023-02-18T15:24:13;100012.03;;;13.57;69.88
15998;BME280;8103;51.340;12.326;2023-02-18T15:26:47;100014.28;;;13.35;70.99
15998;BME280;8103;51.340;12.326;2023-02-18T15:29:26;100032.63;;;13.23;72.08